sensor_id;sensor_type;location;lat;lon;timestamp;P1;durP1;ratioP1;P2;durP2;ratioP2
10471;SDS011;5283;48.876;8.962;2024-03-02T00:00:52;12.27;;;9.03;;
10471;SDS011;5283;48.876;8.962;2024-03-02T00:03:19;14.50;;;9.87;;
10471;SDS011;5283;48.876;8.962;2024-03-02T00:05:50;10.27;;;8.33;;
10471;SDS011;5283;48.876;8.962;2024-03-02T00:08:24;12.40;;;7.80;;
10471;SDS011;5283;48.876;8.962;2024-03-02T00:10:57;15.63;;;10.03;;
10471;SDS011;5283;48.876;8.962;2024-03-02T00:13:25;11.07;;;8.23;;
10471;SDS011;5283;48.876;8.962;2024-03-02T00:15:53;9.40;;;8.03;;
10471;SDS011;5283;48.876;8.962;2024-03-02T00:18:24;11.20;;;8.30;;
10471;SDS011;5283;48.876;8.962;2024-03-02T00:20:59;13.20;;;8.80;;
10471;SDS011;5283;48.876;8.962;2024-03-02T00:23:27;11.83;;;8.90;;
10471;SDS011;5283;48.876;8.962;2024-03-02T00:25:57;11.10;;;8.63;;
10471;SDS011;5283;48.876;8.962;2024-03-02T00:28:30;12.70;;;8.73;;
10471;SDS011;5283;48.876;8.962;2024-03-02T00:31:02;9.70;;;7.57;;
10471;SDS011;5283;48.876;8.962;2024-03-02T00:33:44;13.00;;;7.93;;
10471;SDS011;5283;48.876;8.962;2024-03-02T00:36:16;11.40;;;8.57;;
10471;SDS011;5283;48.876;8.962;2024-03-02T00:38:49;11.37;;;7.83;;
10471;SDS011;5283;48.876;8.962;2024-03-02T00:41:19;11.13;;;7.90;;
10471;SDS011;5283;48.876;8.962;2024-03-02T00:46:30;13.63;;;8.13;;
10471;SDS011;5283;48.876;8.962;2024-03-02T00:49:01;13.87;;;9.07;;
10471;SDS011;5283;48.876;8.962;2024-03-02T00:51:30;12.53;;;8.93;;
10471;SDS011;5283;48.876;8.962;2024-03-02T00:53:59;11.43;;;9.00;;
10471;SDS011;5283;48.876;8.962;2024-03-02T00:56:27;15.33;;;10.10;;
10471;SDS011;5283;48.876;8.962;2024-03-02T00:58:54;14.53;;;9.53;;
10471;SDS011;5283;48.876;8.962;2024-03-02T01:01:21;15.17;;;10.23;;
10471;SDS011;5283;48.876;8.962;2024-03-02T01:03:48;14.43;;;10.03;;
10471;SDS011;5283;48.876;8.962;2024-03-02T01:06:15;16.80;;;11.53;;
10471;SDS011;5283;48.876;8.962;2024-03-02T01:08:42;17.30;;;10.63;;
10471;SDS011;5283;48.876;8.962;2024-03-02T01:11:09;17.77;;;11.40;;
10471;SDS011;5283;48.876;8.962;2024-03-02T01:13:36;18.47;;;11.47;;
10471;SDS011;5283;48.876;8.962;2024-03-02T01:16:04;16.77;;;11.27;;
10471;SDS011;5283;48.876;8.962;2024-03-02T01:18:31;20.10;;;12.27;;
10471;SDS011;5283;48.876;8.962;2024-03-02T01:20:58;17.67;;;11.90;;
10471;SDS011;5283;48.876;8.962;2024-03-02T01:23:24;15.80;;;11.37;;
10471;SDS011;5283;48.876;8.962;2024-03-02T01:25:51;21.37;;;11.27;;
10471;SDS011;5283;48.876;8.962;2024-03-02T01:28:19;20.73;;;12.47;;
10471;SDS011;5283;48.876;8.962;2024-03-02T01:30:47;24.57;;;13.57;;
10471;SDS011;5283;48.876;8.962;2024-03-02T01:33:13;22.70;;;14.43;;
10471;SDS011;5283;48.876;8.962;2024-03-02T01:35:40;21.37;;;13.40;;
10471;SDS011;5283;48.876;8.962;2024-03-02T01:38:07;20.63;;;13.50;;
10471;SDS011;5283;48.876;8.962;2024-03-02T01:40:34;17.23;;;12.90;;
10471;SDS011;5283;48.876;8.962;2024-03-02T01:43:03;19.30;;;12.73;;
10471;SDS011;5283;48.876;8.962;2024-03-02T01:45:31;23.63;;;15.27;;
10471;SDS011;5283;48.876;8.962;2024-03-02T01:47:58;21.50;;;13.40;;
10471;SDS011;5283;48.876;8.962;2024-03-02T01:50:29;22.77;;;13.13;;
10471;SDS011;5283;48.876;8.962;2024-03-02T01:52:58;20.83;;;12.70;;
10471;SDS011;5283;48.876;8.962;2024-03-02T01:55:26;21.13;;;13.10;;
10471;SDS011;5283;48.876;8.962;2024-03-02T01:57:55;22.30;;;14.57;;
10471;SDS011;5283;48.876;8.962;2024-03-02T02:00:22;25.63;;;15.43;;
10471;SDS011;5283;48.876;8.962;2024-03-02T02:02:51;26.87;;;15.87;;
10471;SDS011;5283;48.876;8.962;2024-03-02T02:05:18;29.63;;;15.70;;
10471;SDS011;5283;48.876;8.962;2024-03-02T02:07:45;27.70;;;16.50;;
10471;SDS011;5283;48.876;8.962;2024-03-02T02:10:11;29.30;;;17.30;;
10471;SDS011;5283;48.876;8.962;2024-03-02T02:12:39;26.90;;;16.60;;
10471;SDS011;5283;48.876;8.962;2024-03-02T02:18:09;24.47;;;14.97;;
10471;SDS011;5283;48.876;8.962;2024-03-02T02:20:35;26.60;;;14.53;;
10471;SDS011;5283;48.876;8.962;2024-03-02T02:23:03;29.73;;;16.70;;
10471;SDS011;5283;48.876;8.962;2024-03-02T02:25:31;28.87;;;16.37;;
10471;SDS011;5283;48.876;8.962;2024-03-02T02:27:58;28.43;;;16.07;;
10471;SDS011;5283;48.876;8.962;2024-03-02T02:30:28;26.43;;;14.33;;
10471;SDS011;5283;48.876;8.962;2024-03-02T02:32:57;23.10;;;14.43;;
10471;SDS011;5283;48.876;8.962;2024-03-02T02:35:24;27.47;;;15.33;;
10471;SDS011;5283;48.876;8.962;2024-03-02T02:37:51;23.93;;;13.67;;
10471;SDS011;5283;48.876;8.962;2024-03-02T02:40:19;22.97;;;13.97;;
10471;SDS011;5283;48.876;8.962;2024-03-02T02:42:46;20.73;;;12.93;;
10471;SDS011;5283;48.876;8.962;2024-03-02T02:45:13;23.90;;;14.63;;
10471;SDS011;5283;48.876;8.962;2024-03-02T02:47:41;29.07;;;15.60;;
10471;SDS011;5283;48.876;8.962;2024-03-02T02:50:08;26.97;;;14.83;;
10471;SDS011;5283;48.876;8.962;2024-03-02T02:52:36;25.83;;;14.83;;
10471;SDS011;5283;48.876;8.962;2024-03-02T02:55:09;27.57;;;15.27;;
10471;SDS011;5283;48.876;8.962;2024-03-02T02:57:37;26.97;;;15.17;;
10471;SDS011;5283;48.876;8.962;2024-03-02T03:00:07;35.53;;;17.17;;
10471;SDS011;5283;48.876;8.962;2024-03-02T03:02:40;23.47;;;14.97;;
10471;SDS011;5283;48.876;8.962;2024-03-02T03:05:11;29.90;;;16.67;;
10471;SDS011;5283;48.876;8.962;2024-03-02T03:07:40;32.70;;;18.00;;
10471;SDS011;5283;48.876;8.962;2024-03-02T03:10:07;32.57;;;17.10;;
10471;SDS011;5283;48.876;8.962;2024-03-02T03:12:34;32.90;;;17.23;;
10471;SDS011;5283;48.876;8.962;2024-03-02T03:15:02;34.77;;;18.23;;
10471;SDS011;5283;48.876;8.962;2024-03-02T03:17:30;32.97;;;17.37;;
10471;SDS011;5283;48.876;8.962;2024-03-02T03:19:57;32.87;;;17.20;;
10471;SDS011;5283;48.876;8.962;2024-03-02T03:22:24;34.77;;;17.23;;
10471;SDS011;5283;48.876;8.962;2024-03-02T03:24:50;38.67;;;18.57;;
10471;SDS011;5283;48.876;8.962;2024-03-02T03:27:17;37.83;;;18.30;;
10471;SDS011;5283;48.876;8.962;2024-03-02T03:29:45;41.50;;;20.03;;
10471;SDS011;5283;48.876;8.962;2024-03-02T03:32:12;42.63;;;20.53;;
10471;SDS011;5283;48.876;8.962;2024-03-02T03:34:40;41.47;;;21.20;;
10471;SDS011;5283;48.876;8.962;2024-03-02T03:37:07;42.23;;;22.27;;
10471;SDS011;5283;48.876;8.962;2024-03-02T03:39:34;45.90;;;22.97;;
10471;SDS011;5283;48.876;8.962;2024-03-02T03:42:02;45.47;;;22.73;;
10471;SDS011;5283;48.876;8.962;2024-03-02T03:44:29;44.17;;;22.23;;
10471;SDS011;5283;48.876;8.962;2024-03-02T03:46:55;46.13;;;22.13;;
10471;SDS011;5283;48.876;8.962;2024-03-02T03:49:22;42.87;;;20.80;;
10471;SDS011;5283;48.876;8.962;2024-03-02T03:51:49;42.33;;;21.47;;
10471;SDS011;5283;48.876;8.962;2024-03-02T03:54:16;39.97;;;20.10;;
10471;SDS011;5283;48.876;8.962;2024-03-02T03:56:42;38.23;;;19.47;;
10471;SDS011;5283;48.876;8.962;2024-03-02T03:59:09;47.50;;;21.47;;
10471;SDS011;5283;48.876;8.962;2024-03-02T04:01:37;43.70;;;21.30;;
10471;SDS011;5283;48.876;8.962;2024-03-02T04:04:04;42.83;;;21.87;;
10471;SDS011;5283;48.876;8.962;2024-03-02T04:06:30;39.97;;;20.93;;
10471;SDS011;5283;48.876;8.962;2024-03-02T04:08:58;42.07;;;20.80;;
10471;SDS011;5283;48.876;8.962;2024-03-02T04:11:25;41.30;;;20.37;;
10471;SDS011;5283;48.876;8.962;2024-03-02T04:13:52;41.33;;;20.93;;
10471;SDS011;5283;48.876;8.962;2024-03-02T04:16:19;41.33;;;21.27;;
10471;SDS011;5283;48.876;8.962;2024-03-02T04:18:46;39.20;;;20.20;;
10471;SDS011;5283;48.876;8.962;2024-03-02T04:21:12;42.23;;;21.87;;
10471;SDS011;5283;48.876;8.962;2024-03-02T04:23:39;43.00;;;20.03;;
10471;SDS011;5283;48.876;8.962;2024-03-02T04:26:06;44.40;;;22.10;;
10471;SDS011;5283;48.876;8.962;2024-03-02T04:28:32;44.10;;;21.63;;
10471;SDS011;5283;48.876;8.962;2024-03-02T04:30:59;45.87;;;20.80;;
10471;SDS011;5283;48.876;8.962;2024-03-02T04:33:26;48.27;;;21.93;;
10471;SDS011;5283;48.876;8.962;2024-03-02T04:35:53;51.50;;;23.10;;
10471;SDS011;5283;48.876;8.962;2024-03-02T04:38:19;46.30;;;21.40;;
10471;SDS011;5283;48.876;8.962;2024-03-02T04:40:46;51.17;;;24.50;;
10471;SDS011;5283;48.876;8.962;2024-03-02T04:43:12;48.37;;;22.60;;
10471;SDS011;5283;48.876;8.962;2024-03-02T04:45:42;48.87;;;22.93;;
10471;SDS011;5283;48.876;8.962;2024-03-02T04:48:09;51.97;;;24.00;;
10471;SDS011;5283;48.876;8.962;2024-03-02T04:50:36;47.37;;;22.73;;
10471;SDS011;5283;48.876;8.962;2024-03-02T04:53:02;48.47;;;24.13;;
10471;SDS011;5283;48.876;8.962;2024-03-02T04:55:29;49.23;;;23.10;;
10471;SDS011;5283;48.876;8.962;2024-03-02T04:58:05;51.60;;;23.63;;
10471;SDS011;5283;48.876;8.962;2024-03-02T05:00:32;52.93;;;23.70;;
10471;SDS011;5283;48.876;8.962;2024-03-02T05:02:59;47.37;;;21.93;;
10471;SDS011;5283;48.876;8.962;2024-03-02T05:05:27;46.17;;;23.43;;
10471;SDS011;5283;48.876;8.962;2024-03-02T05:07:53;52.47;;;23.90;;
10471;SDS011;5283;48.876;8.962;2024-03-02T05:10:20;53.80;;;23.93;;
10471;SDS011;5283;48.876;8.962;2024-03-02T05:12:47;48.90;;;22.10;;
10471;SDS011;5283;48.876;8.962;2024-03-02T05:15:23;51.30;;;23.13;;
10471;SDS011;5283;48.876;8.962;2024-03-02T05:17:50;51.77;;;24.63;;
10471;SDS011;5283;48.876;8.962;2024-03-02T05:20:17;53.80;;;24.47;;
10471;SDS011;5283;48.876;8.962;2024-03-02T05:22:44;57.57;;;26.13;;
10471;SDS011;5283;48.876;8.962;2024-03-02T05:25:10;50.80;;;25.23;;
10471;SDS011;5283;48.876;8.962;2024-03-02T05:27:37;53.47;;;25.00;;
10471;SDS011;5283;48.876;8.962;2024-03-02T05:30:04;53.97;;;24.90;;
10471;SDS011;5283;48.876;8.962;2024-03-02T05:32:33;50.73;;;22.77;;
10471;SDS011;5283;48.876;8.962;2024-03-02T05:35:00;51.10;;;25.10;;
10471;SDS011;5283;48.876;8.962;2024-03-02T05:37:27;48.67;;;24.67;;
10471;SDS011;5283;48.876;8.962;2024-03-02T05:39:54;49.53;;;22.80;;
10471;SDS011;5283;48.876;8.962;2024-03-02T05:42:21;45.77;;;23.23;;
10471;SDS011;5283;48.876;8.962;2024-03-02T05:44:48;41.70;;;21.90;;
10471;SDS011;5283;48.876;8.962;2024-03-02T05:47:14;44.83;;;23.60;;
10471;SDS011;5283;48.876;8.962;2024-03-02T05:49:41;45.13;;;22.83;;
10471;SDS011;5283;48.876;8.962;2024-03-02T05:52:09;41.90;;;22.03;;
10471;SDS011;5283;48.876;8.962;2024-03-02T05:54:36;37.23;;;20.93;;
10471;SDS011;5283;48.876;8.962;2024-03-02T05:57:03;38.70;;;20.50;;
10471;SDS011;5283;48.876;8.962;2024-03-02T05:59:43;36.93;;;20.23;;
10471;SDS011;5283;48.876;8.962;2024-03-02T06:02:10;36.60;;;20.17;;
10471;SDS011;5283;48.876;8.962;2024-03-02T06:04:36;34.33;;;20.40;;
10471;SDS011;5283;48.876;8.962;2024-03-02T06:07:03;36.40;;;20.80;;
10471;SDS011;5283;48.876;8.962;2024-03-02T06:09:30;32.87;;;19.87;;
10471;SDS011;5283;48.876;8.962;2024-03-02T06:11:56;37.57;;;20.43;;
10471;SDS011;5283;48.876;8.962;2024-03-02T06:14:23;32.17;;;19.70;;
10471;SDS011;5283;48.876;8.962;2024-03-02T06:16:50;29.97;;;18.53;;
10471;SDS011;5283;48.876;8.962;2024-03-02T06:19:16;30.13;;;17.30;;
10471;SDS011;5283;48.876;8.962;2024-03-02T06:21:44;27.90;;;16.90;;
10471;SDS011;5283;48.876;8.962;2024-03-02T06:24:10;23.67;;;15.87;;
10471;SDS011;5283;48.876;8.962;2024-03-02T06:26:37;23.90;;;16.07;;
10471;SDS011;5283;48.876;8.962;2024-03-02T06:29:05;20.07;;;14.73;;
10471;SDS011;5283;48.876;8.962;2024-03-02T06:31:32;22.87;;;15.13;;
10471;SDS011;5283;48.876;8.962;2024-03-02T06:33:58;18.90;;;13.77;;
10471;SDS011;5283;48.876;8.962;2024-03-02T06:36:25;20.87;;;14.17;;
10471;SDS011;5283;48.876;8.962;2024-03-02T06:38:52;19.43;;;13.60;;
10471;SDS011;5283;48.876;8.962;2024-03-02T06:41:18;17.97;;;13.03;;
10471;SDS011;5283;48.876;8.962;2024-03-02T06:43:45;18.80;;;13.43;;
10471;SDS011;5283;48.876;8.962;2024-03-02T06:46:12;17.23;;;13.37;;
10471;SDS011;5283;48.876;8.962;2024-03-02T06:48:41;18.77;;;13.80;;
10471;SDS011;5283;48.876;8.962;2024-03-02T06:51:07;17.80;;;13.03;;
10471;SDS011;5283;48.876;8.962;2024-03-02T06:53:34;16.50;;;11.93;;
10471;SDS011;5283;48.876;8.962;2024-03-02T06:56:01;15.53;;;12.50;;
10471;SDS011;5283;48.876;8.962;2024-03-02T06:58:27;14.70;;;11.53;;
10471;SDS011;5283;48.876;8.962;2024-03-02T07:00:54;15.17;;;11.50;;
10471;SDS011;5283;48.876;8.962;2024-03-02T07:03:21;15.53;;;11.77;;
10471;SDS011;5283;48.876;8.962;2024-03-02T07:05:47;14.67;;;12.43;;
10471;SDS011;5283;48.876;8.962;2024-03-02T07:08:14;14.33;;;11.23;;
10471;SDS011;5283;48.876;8.962;2024-03-02T07:10:41;17.13;;;12.33;;
10471;SDS011;5283;48.876;8.962;2024-03-02T07:13:08;13.50;;;11.20;;
10471;SDS011;5283;48.876;8.962;2024-03-02T07:15:35;14.27;;;11.47;;
10471;SDS011;5283;48.876;8.962;2024-03-02T07:18:20;13.80;;;10.50;;
10471;SDS011;5283;48.876;8.962;2024-03-02T07:20:46;13.40;;;10.53;;
10471;SDS011;5283;48.876;8.962;2024-03-02T07:23:15;12.93;;;10.90;;
10471;SDS011;5283;48.876;8.962;2024-03-02T07:25:42;11.40;;;9.50;;
10471;SDS011;5283;48.876;8.962;2024-03-02T07:28:11;12.60;;;10.63;;
10471;SDS011;5283;48.876;8.962;2024-03-02T07:30:38;13.77;;;10.60;;
10471;SDS011;5283;48.876;8.962;2024-03-02T07:33:06;11.87;;;9.70;;
10471;SDS011;5283;48.876;8.962;2024-03-02T07:35:32;12.13;;;9.30;;
10471;SDS011;5283;48.876;8.962;2024-03-02T07:37:59;11.50;;;9.60;;
10471;SDS011;5283;48.876;8.962;2024-03-02T07:40:26;9.70;;;8.67;;
10471;SDS011;5283;48.876;8.962;2024-03-02T07:42:53;10.07;;;8.87;;
10471;SDS011;5283;48.876;8.962;2024-03-02T07:45:20;11.20;;;9.03;;
10471;SDS011;5283;48.876;8.962;2024-03-02T07:47:46;12.63;;;9.20;;
10471;SDS011;5283;48.876;8.962;2024-03-02T07:50:13;12.13;;;9.17;;
10471;SDS011;5283;48.876;8.962;2024-03-02T07:52:43;9.07;;;8.17;;
10471;SDS011;5283;48.876;8.962;2024-03-02T07:55:10;12.33;;;8.33;;
10471;SDS011;5283;48.876;8.962;2024-03-02T07:57:37;11.87;;;9.13;;
10471;SDS011;5283;48.876;8.962;2024-03-02T08:00:04;12.20;;;8.70;;
10471;SDS011;5283;48.876;8.962;2024-03-02T08:02:31;10.30;;;8.60;;
10471;SDS011;5283;48.876;8.962;2024-03-02T08:04:58;10.50;;;9.00;;
10471;SDS011;5283;48.876;8.962;2024-03-02T08:07:24;9.87;;;8.80;;
10471;SDS011;5283;48.876;8.962;2024-03-02T08:09:51;11.00;;;9.40;;
10471;SDS011;5283;48.876;8.962;2024-03-02T08:12:17;12.43;;;9.20;;
10471;SDS011;5283;48.876;8.962;2024-03-02T08:14:45;10.43;;;9.33;;
10471;SDS011;5283;48.876;8.962;2024-03-02T08:17:12;11.83;;;9.97;;
10471;SDS011;5283;48.876;8.962;2024-03-02T08:19:39;10.83;;;9.43;;
10471;SDS011;5283;48.876;8.962;2024-03-02T08:22:06;10.73;;;9.20;;
10471;SDS011;5283;48.876;8.962;2024-03-02T08:24:34;10.90;;;9.07;;
10471;SDS011;5283;48.876;8.962;2024-03-02T08:27:01;9.67;;;8.67;;
10471;SDS011;5283;48.876;8.962;2024-03-02T08:29:28;11.80;;;9.43;;
10471;SDS011;5283;48.876;8.962;2024-03-02T08:31:55;11.83;;;9.23;;
10471;SDS011;5283;48.876;8.962;2024-03-02T08:34:22;11.03;;;9.10;;
10471;SDS011;5283;48.876;8.962;2024-03-02T08:36:48;11.40;;;9.27;;
10471;SDS011;5283;48.876;8.962;2024-03-02T08:39:15;10.00;;;9.00;;
10471;SDS011;5283;48.876;8.962;2024-03-02T08:41:42;10.37;;;9.20;;
10471;SDS011;5283;48.876;8.962;2024-03-02T08:44:10;9.70;;;8.70;;
10471;SDS011;5283;48.876;8.962;2024-03-02T08:46:38;10.93;;;8.97;;
10471;SDS011;5283;48.876;8.962;2024-03-02T08:49:06;11.13;;;8.57;;
10471;SDS011;5283;48.876;8.962;2024-03-02T08:51:33;10.00;;;8.50;;
10471;SDS011;5283;48.876;8.962;2024-03-02T08:54:00;9.80;;;7.93;;
10471;SDS011;5283;48.876;8.962;2024-03-02T08:56:26;9.70;;;8.70;;
10471;SDS011;5283;48.876;8.962;2024-03-02T08:58:53;9.37;;;8.00;;
10471;SDS011;5283;48.876;8.962;2024-03-02T09:01:20;9.70;;;8.70;;
10471;SDS011;5283;48.876;8.962;2024-03-02T09:03:47;9.63;;;8.30;;
10471;SDS011;5283;48.876;8.962;2024-03-02T09:06:15;9.23;;;7.83;;
10471;SDS011;5283;48.876;8.962;2024-03-02T09:08:46;9.37;;;7.23;;
10471;SDS011;5283;48.876;8.962;2024-03-02T09:11:14;8.00;;;7.13;;
10471;SDS011;5283;48.876;8.962;2024-03-02T09:13:41;7.93;;;6.57;;
10471;SDS011;5283;48.876;8.962;2024-03-02T09:16:08;7.30;;;6.60;;
10471;SDS011;5283;48.876;8.962;2024-03-02T09:18:37;8.83;;;6.57;;
10471;SDS011;5283;48.876;8.962;2024-03-02T09:21:04;7.03;;;6.33;;
10471;SDS011;5283;48.876;8.962;2024-03-02T09:23:31;7.87;;;6.33;;
10471;SDS011;5283;48.876;8.962;2024-03-02T09:25:58;6.67;;;5.70;;
10471;SDS011;5283;48.876;8.962;2024-03-02T09:28:25;6.13;;;5.53;;
10471;SDS011;5283;48.876;8.962;2024-03-02T09:30:52;6.83;;;5.90;;
10471;SDS011;5283;48.876;8.962;2024-03-02T09:33:20;6.00;;;5.23;;
10471;SDS011;5283;48.876;8.962;2024-03-02T09:35:46;6.93;;;5.70;;
10471;SDS011;5283;48.876;8.962;2024-03-02T09:38:14;6.00;;;5.40;;
10471;SDS011;5283;48.876;8.962;2024-03-02T09:40:41;5.50;;;4.93;;
10471;SDS011;5283;48.876;8.962;2024-03-02T09:43:08;5.70;;;5.00;;
10471;SDS011;5283;48.876;8.962;2024-03-02T09:45:35;5.40;;;4.90;;
10471;SDS011;5283;48.876;8.962;2024-03-02T09:48:02;5.33;;;4.60;;
10471;SDS011;5283;48.876;8.962;2024-03-02T09:50:29;6.03;;;4.20;;
10471;SDS011;5283;48.876;8.962;2024-03-02T09:52:56;8.73;;;4.17;;
10471;SDS011;5283;48.876;8.962;2024-03-02T09:55:23;4.57;;;4.07;;
10471;SDS011;5283;48.876;8.962;2024-03-02T09:57:51;4.40;;;4.00;;
10471;SDS011;5283;48.876;8.962;2024-03-02T10:00:17;5.07;;;4.13;;
10471;SDS011;5283;48.876;8.962;2024-03-02T10:02:44;4.67;;;3.93;;
10471;SDS011;5283;48.876;8.962;2024-03-02T10:05:23;4.27;;;3.87;;
10471;SDS011;5283;48.876;8.962;2024-03-02T10:07:58;4.40;;;4.00;;
10471;SDS011;5283;48.876;8.962;2024-03-02T10:10:38;3.97;;;3.60;;
10471;SDS011;5283;48.876;8.962;2024-03-02T10:13:07;3.57;;;3.17;;
10471;SDS011;5283;48.876;8.962;2024-03-02T10:15:34;3.93;;;3.27;;
10471;SDS011;5283;48.876;8.962;2024-03-02T10:18:12;3.80;;;3.50;;
10471;SDS011;5283;48.876;8.962;2024-03-02T10:20:40;4.67;;;3.40;;
10471;SDS011;5283;48.876;8.962;2024-03-02T10:23:14;4.07;;;3.57;;
10471;SDS011;5283;48.876;8.962;2024-03-02T10:25:42;3.40;;;3.10;;
10471;SDS011;5283;48.876;8.962;2024-03-02T10:28:12;3.40;;;3.10;;
10471;SDS011;5283;48.876;8.962;2024-03-02T10:30:38;3.07;;;2.83;;
10471;SDS011;5283;48.876;8.962;2024-03-02T10:33:05;2.80;;;2.60;;
10471;SDS011;5283;48.876;8.962;2024-03-02T10:35:32;3.30;;;3.00;;
10471;SDS011;5283;48.876;8.962;2024-03-02T10:38:03;3.20;;;2.90;;
10471;SDS011;5283;48.876;8.962;2024-03-02T10:40:31;3.17;;;2.87;;
10471;SDS011;5283;48.876;8.962;2024-03-02T10:42:58;2.80;;;2.60;;
10471;SDS011;5283;48.876;8.962;2024-03-02T10:45:28;3.20;;;2.73;;
10471;SDS011;5283;48.876;8.962;2024-03-02T10:47:55;5.13;;;2.67;;
10471;SDS011;5283;48.876;8.962;2024-03-02T10:50:23;3.30;;;2.87;;
10471;SDS011;5283;48.876;8.962;2024-03-02T10:52:50;3.27;;;3.00;;
10471;SDS011;5283;48.876;8.962;2024-03-02T10:55:17;3.97;;;2.70;;
10471;SDS011;5283;48.876;8.962;2024-03-02T10:57:49;2.70;;;2.50;;
10471;SDS011;5283;48.876;8.962;2024-03-02T11:00:24;2.50;;;2.30;;
10471;SDS011;5283;48.876;8.962;2024-03-02T11:02:56;2.60;;;2.23;;
10471;SDS011;5283;48.876;8.962;2024-03-02T11:05:28;2.53;;;2.33;;
10471;SDS011;5283;48.876;8.962;2024-03-02T11:08:00;2.83;;;2.27;;
10471;SDS011;5283;48.876;8.962;2024-03-02T11:10:34;2.63;;;2.37;;
10471;SDS011;5283;48.876;8.962;2024-03-02T11:13:05;3.27;;;2.43;;
10471;SDS011;5283;48.876;8.962;2024-03-02T11:15:35;3.70;;;2.70;;
10471;SDS011;5283;48.876;8.962;2024-03-02T11:18:05;3.07;;;2.33;;
10471;SDS011;5283;48.876;8.962;2024-03-02T11:20:40;2.53;;;2.33;;
10471;SDS011;5283;48.876;8.962;2024-03-02T11:23:08;2.50;;;2.30;;
10471;SDS011;5283;48.876;8.962;2024-03-02T11:25:35;2.53;;;2.33;;
10471;SDS011;5283;48.876;8.962;2024-03-02T11:28:03;2.23;;;2.00;;
10471;SDS011;5283;48.876;8.962;2024-03-02T11:33:04;2.50;;;2.30;;
10471;SDS011;5283;48.876;8.962;2024-03-02T11:38:02;2.20;;;2.00;;
10471;SDS011;5283;48.876;8.962;2024-03-02T11:40:30;9.73;;;6.43;;
10471;SDS011;5283;48.876;8.962;2024-03-02T11:42:57;2.13;;;1.80;;
10471;SDS011;5283;48.876;8.962;2024-03-02T11:45:26;2.00;;;1.90;;
10471;SDS011;5283;48.876;8.962;2024-03-02T11:47:53;1.70;;;1.60;;
10471;SDS011;5283;48.876;8.962;2024-03-02T11:50:34;1.67;;;1.50;;
10471;SDS011;5283;48.876;8.962;2024-03-02T11:53:03;1.70;;;1.50;;
10471;SDS011;5283;48.876;8.962;2024-03-02T11:55:35;2.27;;;1.57;;
10471;SDS011;5283;48.876;8.962;2024-03-02T11:58:05;2.03;;;0.80;;
10471;SDS011;5283;48.876;8.962;2024-03-02T12:00:33;1.27;;;0.97;;
10471;SDS011;5283;48.876;8.962;2024-03-02T12:03:06;1.70;;;1.60;;
10471;SDS011;5283;48.876;8.962;2024-03-02T12:05:34;2.30;;;2.10;;
10471;SDS011;5283;48.876;8.962;2024-03-02T12:08:03;1.57;;;1.47;;
10471;SDS011;5283;48.876;8.962;2024-03-02T12:10:31;1.20;;;1.10;;
10471;SDS011;5283;48.876;8.962;2024-03-02T12:12:59;0.70;;;0.63;;
10471;SDS011;5283;48.876;8.962;2024-03-02T12:15:27;3.23;;;0.80;;
10471;SDS011;5283;48.876;8.962;2024-03-02T12:17:56;0.93;;;0.70;;
10471;SDS011;5283;48.876;8.962;2024-03-02T12:20:24;1.70;;;1.60;;
10471;SDS011;5283;48.876;8.962;2024-03-02T12:22:52;2.10;;;1.90;;
10471;SDS011;5283;48.876;8.962;2024-03-02T12:25:20;2.27;;;2.10;;
10471;SDS011;5283;48.876;8.962;2024-03-02T12:27:47;2.00;;;1.90;;
10471;SDS011;5283;48.876;8.962;2024-03-02T12:30:16;2.10;;;1.90;;
10471;SDS011;5283;48.876;8.962;2024-03-02T12:32:44;2.00;;;1.77;;
10471;SDS011;5283;48.876;8.962;2024-03-02T12:35:11;3.33;;;1.20;;
10471;SDS011;5283;48.876;8.962;2024-03-02T12:37:43;0.60;;;0.60;;
10471;SDS011;5283;48.876;8.962;2024-03-02T12:40:20;0.97;;;0.70;;
10471;SDS011;5283;48.876;8.962;2024-03-02T12:42:48;0.67;;;0.67;;
10471;SDS011;5283;48.876;8.962;2024-03-02T12:45:16;0.57;;;0.50;;
10471;SDS011;5283;48.876;8.962;2024-03-02T12:47:50;0.40;;;0.40;;
10471;SDS011;5283;48.876;8.962;2024-03-02T12:50:18;1.07;;;0.70;;
10471;SDS011;5283;48.876;8.962;2024-03-02T12:52:50;0.50;;;0.50;;
10471;SDS011;5283;48.876;8.962;2024-03-02T12:55:19;0.50;;;0.50;;
10471;SDS011;5283;48.876;8.962;2024-03-02T12:57:47;0.67;;;0.50;;
10471;SDS011;5283;48.876;8.962;2024-03-02T13:00:18;0.83;;;0.53;;
10471;SDS011;5283;48.876;8.962;2024-03-02T13:02:46;0.70;;;0.50;;
10471;SDS011;5283;48.876;8.962;2024-03-02T13:05:13;0.70;;;0.47;;
10471;SDS011;5283;48.876;8.962;2024-03-02T13:07:40;0.40;;;0.40;;
10471;SDS011;5283;48.876;8.962;2024-03-02T13:10:07;0.40;;;0.40;;
10471;SDS011;5283;48.876;8.962;2024-03-02T13:12:35;0.90;;;0.43;;
10471;SDS011;5283;48.876;8.962;2024-03-02T13:15:03;1.50;;;0.43;;
10471;SDS011;5283;48.876;8.962;2024-03-02T13:17:33;0.47;;;0.47;;
10471;SDS011;5283;48.876;8.962;2024-03-02T13:20:02;0.87;;;0.60;;
10471;SDS011;5283;48.876;8.962;2024-03-02T13:22:30;0.77;;;0.63;;
10471;SDS011;5283;48.876;8.962;2024-03-02T13:24:57;1.50;;;0.57;;
10471;SDS011;5283;48.876;8.962;2024-03-02T13:27:26;1.23;;;0.60;;
10471;SDS011;5283;48.876;8.962;2024-03-02T13:29:52;0.97;;;0.50;;
10471;SDS011;5283;48.876;8.962;2024-03-02T13:32:20;0.53;;;0.53;;
10471;SDS011;5283;48.876;8.962;2024-03-02T13:34:50;1.20;;;1.10;;
10471;SDS011;5283;48.876;8.962;2024-03-02T13:37:16;0.50;;;0.50;;
10471;SDS011;5283;48.876;8.962;2024-03-02T13:39:43;0.40;;;0.40;;
10471;SDS011;5283;48.876;8.962;2024-03-02T13:42:10;0.50;;;0.50;;
10471;SDS011;5283;48.876;8.962;2024-03-02T13:44:39;0.60;;;0.60;;
10471;SDS011;5283;48.876;8.962;2024-03-02T13:47:07;2.07;;;0.57;;
10471;SDS011;5283;48.876;8.962;2024-03-02T13:49:34;0.57;;;0.50;;
10471;SDS011;5283;48.876;8.962;2024-03-02T13:52:07;0.40;;;0.33;;
10471;SDS011;5283;48.876;8.962;2024-03-02T13:54:42;1.23;;;0.53;;
10471;SDS011;5283;48.876;8.962;2024-03-02T13:57:11;4.57;;;1.40;;
10471;SDS011;5283;48.876;8.962;2024-03-02T13:59:41;0.90;;;0.70;;
10471;SDS011;5283;48.876;8.962;2024-03-02T14:02:08;1.60;;;1.00;;
10471;SDS011;5283;48.876;8.962;2024-03-02T14:04:36;0.77;;;0.70;;
10471;SDS011;5283;48.876;8.962;2024-03-02T14:07:03;0.70;;;0.70;;
10471;SDS011;5283;48.876;8.962;2024-03-02T14:09:34;1.30;;;1.20;;
10471;SDS011;5283;48.876;8.962;2024-03-02T14:12:00;0.50;;;0.50;;
10471;SDS011;5283;48.876;8.962;2024-03-02T14:14:28;0.40;;;0.40;;
10471;SDS011;5283;48.876;8.962;2024-03-02T14:16:54;15.37;;;13.70;;
10471;SDS011;5283;48.876;8.962;2024-03-02T14:19:31;4.30;;;2.03;;
10471;SDS011;5283;48.876;8.962;2024-03-02T14:21:58;1.90;;;1.80;;
10471;SDS011;5283;48.876;8.962;2024-03-02T14:24:25;1.07;;;0.97;;
10471;SDS011;5283;48.876;8.962;2024-03-02T14:26:54;1.10;;;0.90;;
10471;SDS011;5283;48.876;8.962;2024-03-02T14:29:23;0.90;;;0.90;;
10471;SDS011;5283;48.876;8.962;2024-03-02T14:31:50;1.30;;;0.70;;
10471;SDS011;5283;48.876;8.962;2024-03-02T14:34:16;0.90;;;0.90;;
10471;SDS011;5283;48.876;8.962;2024-03-02T14:36:43;0.83;;;0.83;;
10471;SDS011;5283;48.876;8.962;2024-03-02T14:39:10;1.07;;;0.60;;
10471;SDS011;5283;48.876;8.962;2024-03-02T14:41:37;0.70;;;0.70;;
10471;SDS011;5283;48.876;8.962;2024-03-02T14:44:04;1.60;;;0.53;;
10471;SDS011;5283;48.876;8.962;2024-03-02T14:46:31;0.60;;;0.60;;
10471;SDS011;5283;48.876;8.962;2024-03-02T14:48:57;1.10;;;0.60;;
10471;SDS011;5283;48.876;8.962;2024-03-02T14:51:25;0.80;;;0.80;;
10471;SDS011;5283;48.876;8.962;2024-03-02T14:53:51;1.63;;;0.93;;
10471;SDS011;5283;48.876;8.962;2024-03-02T14:56:18;1.33;;;1.20;;
10471;SDS011;5283;48.876;8.962;2024-03-02T14:58:45;0.60;;;0.60;;
10471;SDS011;5283;48.876;8.962;2024-03-02T15:01:12;1.10;;;1.00;;
10471;SDS011;5283;48.876;8.962;2024-03-02T15:03:40;1.00;;;0.97;;